N000SM KSYR-KSYR
Flight info
| Callsign | N000SM |
|---|---|
| Flight time | 0h 31m |
| Altitude | VFR/ |
| Route | |
| Aircraft | DA42/L-DOV/C |
Departure
| Time | 2026-04-26 18:55 |
|---|---|
| Airport | Syracuse Hancock International Airport (KSYR) |
Arrival
| Time | 2026-04-26 19:26 |
|---|---|
| Airport | Syracuse Hancock International Airport (KSYR) |
| Time | Latitude | Longitude | Altitude | Speed | Heading |
|---|---|---|---|---|---|
| 2026-04-26 18:51 | 43.10956 | -76.12214 | 423 ft | 19 kts | 239° |
| 2026-04-26 18:51 | 43.10950 | -76.12401 | 426 ft | 24 kts | 270° |
| 2026-04-26 18:52 | 43.10945 | -76.12585 | 431 ft | 21 kts | 261° |
| 2026-04-26 18:52 | 43.10899 | -76.12630 | 426 ft | 3 kts | 178° |
| 2026-04-26 18:52 | 43.10842 | -76.12591 | 429 ft | 9 kts | 150° |
| 2026-04-26 18:52 | 43.10822 | -76.12543 | 428 ft | 0 kts | 89° |
| 2026-04-26 18:54 | 43.10825 | -76.12454 | 428 ft | 38 kts | 87° |
| 2026-04-26 18:54 | 43.10848 | -76.11793 | 445 ft | 92 kts | 85° |
| 2026-04-26 18:54 | 43.10896 | -76.10893 | 701 ft | 98 kts | 82° |
| 2026-04-26 18:54 | 43.10968 | -76.09911 | 989 ft | 109 kts | 88° |
| 2026-04-26 18:55 | 43.10983 | -76.08865 | 1341 ft | 115 kts | 80° |
| 2026-04-26 18:55 | 43.11439 | -76.08011 | 1550 ft | 122 kts | 9° |
| 2026-04-26 18:55 | 43.12273 | -76.08435 | 1572 ft | 139 kts | 326° |
| 2026-04-26 18:55 | 43.12873 | -76.09493 | 1707 ft | 147 kts | 283° |
| 2026-04-26 18:56 | 43.12757 | -76.10919 | 1778 ft | 156 kts | 258° |
| 2026-04-26 18:56 | 43.12485 | -76.12167 | 1782 ft | 109 kts | 256° |
| 2026-04-26 18:56 | 43.12314 | -76.13043 | 1603 ft | 92 kts | 260° |
| 2026-04-26 18:56 | 43.12137 | -76.13938 | 1396 ft | 101 kts | 237° |
| 2026-04-26 18:57 | 43.11573 | -76.14316 | 1205 ft | 89 kts | 178° |
| 2026-04-26 18:57 | 43.11374 | -76.14279 | 1051 ft | 89 kts | 166° |
| 2026-04-26 18:57 | 43.10771 | -76.13360 | 630 ft | 88 kts | 82° |
| 2026-04-26 18:57 | 43.10822 | -76.12573 | 467 ft | 77 kts | 88° |
| 2026-04-26 18:58 | 43.10847 | -76.11847 | 421 ft | 84 kts | 86° |
| 2026-04-26 18:58 | 43.10870 | -76.11028 | 631 ft | 88 kts | 89° |
| 2026-04-26 18:58 | 43.10904 | -76.10129 | 859 ft | 105 kts | 84° |
| 2026-04-26 18:58 | 43.10958 | -76.09093 | 1169 ft | 112 kts | 84° |
| 2026-04-26 18:59 | 43.11247 | -76.08138 | 1490 ft | 115 kts | 30° |
| 2026-04-26 18:59 | 43.12062 | -76.08077 | 1615 ft | 122 kts | 356° |
| 2026-04-26 18:59 | 43.12854 | -76.08501 | 1741 ft | 134 kts | 311° |
| 2026-04-26 18:59 | 43.12979 | -76.09792 | 1691 ft | 149 kts | 260° |
| 2026-04-26 19:00 | 43.12728 | -76.11155 | 1660 ft | 143 kts | 259° |
| 2026-04-26 19:00 | 43.12498 | -76.12383 | 1486 ft | 127 kts | 258° |
| 2026-04-26 19:00 | 43.12199 | -76.13500 | 1186 ft | 123 kts | 239° |
| 2026-04-26 19:00 | 43.11780 | -76.13966 | 1095 ft | 115 kts | 201° |
| 2026-04-26 19:01 | 43.10892 | -76.13794 | 746 ft | 89 kts | 141° |
| 2026-04-26 19:01 | 43.10803 | -76.13073 | 568 ft | 83 kts | 77° |
| 2026-04-26 19:01 | 43.10818 | -76.12535 | 456 ft | 77 kts | 82° |
| 2026-04-26 19:01 | 43.10861 | -76.11597 | 469 ft | 79 kts | 88° |
| 2026-04-26 19:02 | 43.10851 | -76.11082 | 599 ft | 90 kts | 85° |
| 2026-04-26 19:02 | 43.10908 | -76.10135 | 809 ft | 108 kts | 81° |
| 2026-04-26 19:02 | 43.11006 | -76.09059 | 1055 ft | 120 kts | 83° |
| 2026-04-26 19:02 | 43.11016 | -76.08265 | 1185 ft | 130 kts | 86° |
| 2026-04-26 19:03 | 43.11740 | -76.07089 | 1377 ft | 135 kts | 358° |
| 2026-04-26 19:03 | 43.12650 | -76.07594 | 1347 ft | 152 kts | 324° |
| 2026-04-26 19:03 | 43.12976 | -76.08901 | 1540 ft | 153 kts | 264° |
| 2026-04-26 19:03 | 43.12773 | -76.10359 | 1396 ft | 155 kts | 261° |
| 2026-04-26 19:04 | 43.12587 | -76.11762 | 1401 ft | 149 kts | 264° |
| 2026-04-26 19:04 | 43.12422 | -76.13150 | 1182 ft | 152 kts | 260° |
| 2026-04-26 19:04 | 43.11959 | -76.14297 | 1263 ft | 131 kts | 219° |
| 2026-04-26 19:04 | 43.11159 | -76.14343 | 993 ft | 105 kts | 159° |
| 2026-04-26 19:05 | 43.10808 | -76.12910 | 534 ft | 90 kts | 83° |
| 2026-04-26 19:05 | 43.10836 | -76.12152 | 421 ft | 64 kts | 85° |
| 2026-04-26 19:05 | 43.10852 | -76.11422 | 527 ft | 89 kts | 84° |
| 2026-04-26 19:06 | 43.10913 | -76.10491 | 776 ft | 102 kts | 80° |
| 2026-04-26 19:06 | 43.11007 | -76.09490 | 1071 ft | 112 kts | 80° |
| 2026-04-26 19:06 | 43.11073 | -76.08335 | 1272 ft | 129 kts | 73° |
| 2026-04-26 19:06 | 43.11720 | -76.07666 | 1463 ft | 133 kts | 360° |
| 2026-04-26 19:07 | 43.12691 | -76.07965 | 1504 ft | 147 kts | 331° |
| 2026-04-26 19:07 | 43.12945 | -76.09205 | 1702 ft | 152 kts | 269° |
| 2026-04-26 19:07 | 43.12799 | -76.10671 | 1501 ft | 156 kts | 264° |
| 2026-04-26 19:07 | 43.12623 | -76.12094 | 1623 ft | 149 kts | 261° |
| 2026-04-26 19:08 | 43.12455 | -76.13489 | 1690 ft | 147 kts | 265° |
| 2026-04-26 19:08 | 43.12335 | -76.14887 | 1677 ft | 148 kts | 265° |
| 2026-04-26 19:08 | 43.12247 | -76.16283 | 1597 ft | 145 kts | 271° |
| 2026-04-26 19:08 | 43.11989 | -76.17522 | 1656 ft | 126 kts | 234° |
| 2026-04-26 19:09 | 43.11232 | -76.17800 | 1617 ft | 119 kts | 154° |
| 2026-04-26 19:09 | 43.10687 | -76.16959 | 1380 ft | 122 kts | 103° |
| 2026-04-26 19:09 | 43.10664 | -76.15863 | 1160 ft | 105 kts | 81° |
| 2026-04-26 19:09 | 43.10742 | -76.14891 | 936 ft | 101 kts | 82° |
| 2026-04-26 19:10 | 43.10776 | -76.13927 | 717 ft | 99 kts | 86° |
| 2026-04-26 19:10 | 43.10805 | -76.13045 | 538 ft | 87 kts | 83° |
| 2026-04-26 19:10 | 43.10831 | -76.12275 | 427 ft | 73 kts | 83° |
| 2026-04-26 19:10 | 43.10866 | -76.11569 | 461 ft | 84 kts | 84° |
| 2026-04-26 19:11 | 43.10858 | -76.10770 | 679 ft | 85 kts | 87° |
| 2026-04-26 19:11 | 43.10904 | -76.09884 | 812 ft | 103 kts | 81° |
| 2026-04-26 19:11 | 43.10948 | -76.08830 | 1044 ft | 117 kts | 84° |
| 2026-04-26 19:11 | 43.11222 | -76.07788 | 1360 ft | 118 kts | 34° |
| 2026-04-26 19:12 | 43.12078 | -76.07757 | 1365 ft | 138 kts | 346° |
| 2026-04-26 19:12 | 43.12887 | -76.08388 | 1621 ft | 132 kts | 307° |
| 2026-04-26 19:12 | 43.12998 | -76.09619 | 1667 ft | 138 kts | 266° |
| 2026-04-26 19:12 | 43.12822 | -76.10948 | 1515 ft | 146 kts | 263° |
| 2026-04-26 19:13 | 43.12617 | -76.12325 | 1441 ft | 150 kts | 261° |
| 2026-04-26 19:13 | 43.12392 | -76.13749 | 1233 ft | 152 kts | 261° |
| 2026-04-26 19:13 | 43.12154 | -76.15022 | 1218 ft | 124 kts | 242° |
| 2026-04-26 19:13 | 43.11477 | -76.15459 | 1159 ft | 108 kts | 172° |
| 2026-04-26 19:14 | 43.10843 | -76.14929 | 1041 ft | 109 kts | 107° |
| 2026-04-26 19:14 | 43.10737 | -76.13909 | 824 ft | 103 kts | 85° |
| 2026-04-26 19:14 | 43.10808 | -76.12936 | 556 ft | 101 kts | 83° |
| 2026-04-26 19:14 | 43.10827 | -76.12317 | 442 ft | 88 kts | 84° |
| 2026-04-26 19:15 | 43.10867 | -76.11299 | 492 ft | 85 kts | 87° |
| 2026-04-26 19:15 | 43.10875 | -76.10389 | 619 ft | 110 kts | 84° |
| 2026-04-26 19:15 | 43.10917 | -76.09247 | 805 ft | 125 kts | 85° |
| 2026-04-26 19:15 | 43.10973 | -76.08061 | 1096 ft | 128 kts | 74° |
| 2026-04-26 19:16 | 43.11658 | -76.07474 | 1292 ft | 131 kts | 353° |
| 2026-04-26 19:16 | 43.12595 | -76.07799 | 1358 ft | 146 kts | 332° |
| 2026-04-26 19:16 | 43.12994 | -76.08963 | 1610 ft | 149 kts | 263° |
| 2026-04-26 19:16 | 43.12779 | -76.10418 | 1473 ft | 161 kts | 260° |
| 2026-04-26 19:17 | 43.12509 | -76.11935 | 1436 ft | 162 kts | 257° |
| 2026-04-26 19:17 | 43.12235 | -76.13371 | 1258 ft | 149 kts | 256° |
| 2026-04-26 19:17 | 43.11926 | -76.14729 | 1039 ft | 150 kts | 242° |
| 2026-04-26 19:17 | 43.11080 | -76.14989 | 1093 ft | 128 kts | 148° |
| 2026-04-26 19:18 | 43.10733 | -76.14059 | 841 ft | 103 kts | 78° |
| 2026-04-26 19:18 | 43.10804 | -76.13154 | 585 ft | 89 kts | 83° |
| 2026-04-26 19:18 | 43.10832 | -76.12318 | 442 ft | 88 kts | 79° |
| 2026-04-26 19:18 | 43.10861 | -76.11572 | 443 ft | 83 kts | 84° |
| 2026-04-26 19:19 | 43.10881 | -76.10693 | 623 ft | 100 kts | 83° |
| 2026-04-26 19:19 | 43.10928 | -76.09641 | 805 ft | 118 kts | 84° |
| 2026-04-26 19:19 | 43.10965 | -76.08468 | 1016 ft | 131 kts | 82° |
| 2026-04-26 19:19 | 43.11550 | -76.07636 | 1183 ft | 135 kts | 2° |
| 2026-04-26 19:20 | 43.12498 | -76.07940 | 1298 ft | 145 kts | 331° |
| 2026-04-26 19:20 | 43.12892 | -76.08618 | 1513 ft | 143 kts | 289° |
| 2026-04-26 19:20 | 43.12753 | -76.10535 | 1453 ft | 153 kts | 261° |
| 2026-04-26 19:20 | 43.12529 | -76.11934 | 1466 ft | 149 kts | 261° |
| 2026-04-26 19:21 | 43.12332 | -76.13318 | 1410 ft | 147 kts | 259° |
| 2026-04-26 19:21 | 43.11969 | -76.14628 | 1222 ft | 148 kts | 223° |
| 2026-04-26 19:21 | 43.11095 | -76.14668 | 1102 ft | 130 kts | 147° |
| 2026-04-26 19:21 | 43.10755 | -76.13790 | 787 ft | 97 kts | 83° |
| 2026-04-26 19:22 | 43.10805 | -76.12898 | 551 ft | 92 kts | 86° |
| 2026-04-26 19:22 | 43.10836 | -76.12094 | 420 ft | 70 kts | 84° |
| 2026-04-26 19:22 | 43.10863 | -76.11323 | 505 ft | 91 kts | 83° |
| 2026-04-26 19:22 | 43.10912 | -76.10368 | 665 ft | 110 kts | 86° |
| 2026-04-26 19:23 | 43.10928 | -76.09266 | 893 ft | 119 kts | 86° |
| 2026-04-26 19:23 | 43.10996 | -76.08123 | 1177 ft | 126 kts | 73° |
| 2026-04-26 19:23 | 43.11613 | -76.07548 | 1482 ft | 121 kts | 353° |
| 2026-04-26 19:23 | 43.12509 | -76.07842 | 1489 ft | 142 kts | 333° |
| 2026-04-26 19:24 | 43.12904 | -76.09003 | 1668 ft | 151 kts | 265° |
| 2026-04-26 19:24 | 43.12724 | -76.10439 | 1404 ft | 154 kts | 261° |
| 2026-04-26 19:24 | 43.12317 | -76.13120 | 1167 ft | 130 kts | 265° |
| 2026-04-26 19:25 | 43.12121 | -76.14321 | 1154 ft | 126 kts | 243° |
| 2026-04-26 19:25 | 43.11665 | -76.14714 | 1268 ft | 120 kts | 182° |
| 2026-04-26 19:25 | 43.10793 | -76.13765 | 853 ft | 112 kts | 98° |
| 2026-04-26 19:25 | 43.10811 | -76.12841 | 519 ft | 84 kts | 85° |
| 2026-04-26 19:26 | 43.10838 | -76.12060 | 423 ft | 75 kts | 85° |
| 2026-04-26 19:26 | 43.10864 | -76.11599 | 419 ft | 41 kts | 93° |
| 2026-04-26 19:26 | 43.10896 | -76.11268 | 422 ft | 33 kts | 59° |
| 2026-04-26 19:26 | 43.10960 | -76.11182 | 420 ft | 1 kts | 32° |
| 2026-04-26 19:29 | 43.10985 | -76.11177 | 421 ft | 14 kts | 313° |
| 2026-04-26 19:29 | 43.10989 | -76.11385 | 417 ft | 18 kts | 266° |
| 2026-04-26 19:29 | 43.10978 | -76.11544 | 422 ft | 16 kts | 268° |
| 2026-04-26 19:29 | 43.10974 | -76.11760 | 418 ft | 33 kts | 266° |
| 2026-04-26 19:30 | 43.10965 | -76.11997 | 420 ft | 30 kts | 269° |
| 2026-04-26 19:30 | 43.10959 | -76.12218 | 423 ft | 18 kts | 265° |
| 2026-04-26 19:30 | 43.10950 | -76.12461 | 428 ft | 24 kts | 268° |
| 2026-04-26 19:30 | 43.10943 | -76.12591 | 427 ft | 16 kts | 252° |
| 2026-04-26 19:31 | 43.10916 | -76.12631 | 431 ft | 0 kts | 197° |
| 2026-04-26 19:31 | 43.10909 | -76.12632 | 431 ft | 0 kts | 176° |
| 2026-04-26 19:35 | 43.10898 | -76.12631 | 426 ft | 12 kts | 174° |
| 2026-04-26 19:35 | 43.10834 | -76.12556 | 428 ft | 11 kts | 124° |
| 2026-04-26 19:35 | 43.10824 | -76.12507 | 428 ft | 0 kts | 84° |
| 2026-04-26 19:36 | 43.10838 | -76.12186 | 422 ft | 69 kts | 91° |
| 2026-04-26 19:36 | 43.10845 | -76.11936 | 422 ft | 85 kts | 89° |
| 2026-04-26 19:36 | 43.10851 | -76.10350 | 665 ft | 114 kts | 88° |
| 2026-04-26 19:36 | 43.10867 | -76.09216 | 946 ft | 121 kts | 90° |
| 2026-04-26 19:37 | 43.10915 | -76.08035 | 1163 ft | 131 kts | 73° |
| 2026-04-26 19:37 | 43.11611 | -76.07555 | 1436 ft | 129 kts | 353° |
| 2026-04-26 19:37 | 43.12580 | -76.07697 | 1451 ft | 148 kts | 355° |
| 2026-04-26 19:37 | 43.13420 | -76.08346 | 1775 ft | 139 kts | 306° |
| 2026-04-26 19:38 | 43.13439 | -76.09726 | 1916 ft | 153 kts | 265° |
| 2026-04-26 19:38 | 43.13303 | -76.11179 | 1948 ft | 159 kts | 270° |
| 2026-04-26 19:38 | 43.13183 | -76.12729 | 1795 ft | 166 kts | 266° |
| 2026-04-26 19:38 | 43.12987 | -76.14265 | 1790 ft | 157 kts | 249° |
| 2026-04-26 19:39 | 43.12101 | -76.14764 | 1910 ft | 156 kts | 169° |
| 2026-04-26 19:39 | 43.10990 | -76.14284 | 998 ft | 163 kts | 144° |
| 2026-04-26 19:39 | 43.10862 | -76.13081 | 610 ft | 128 kts | 88° |
| 2026-04-26 19:39 | 43.10827 | -76.11820 | 669 ft | 136 kts | 86° |
| 2026-04-26 19:40 | 43.10883 | -76.10483 | 827 ft | 144 kts | 88° |
| 2026-04-26 19:40 | 43.10915 | -76.09089 | 1044 ft | 145 kts | 87° |
| 2026-04-26 19:40 | 43.10998 | -76.07727 | 1257 ft | 147 kts | 70° |
| 2026-04-26 19:40 | 43.11793 | -76.07175 | 1490 ft | 138 kts | 345° |
| 2026-04-26 19:41 | 43.12583 | -76.07984 | 1453 ft | 158 kts | 297° |
| 2026-04-26 19:41 | 43.12692 | -76.09454 | 1386 ft | 149 kts | 269° |
| 2026-04-26 19:41 | 43.12600 | -76.10791 | 1280 ft | 136 kts | 268° |
| 2026-04-26 19:41 | 43.12573 | -76.11225 | 1237 ft | 134 kts | 267° |
| 2026-04-26 19:42 | 43.12377 | -76.13266 | 1139 ft | 126 kts | 262° |
| 2026-04-26 19:42 | 43.11966 | -76.14247 | 1167 ft | 102 kts | 210° |
| 2026-04-26 19:42 | 43.11324 | -76.14223 | 988 ft | 98 kts | 169° |
| 2026-04-26 19:42 | 43.10775 | -76.13742 | 830 ft | 97 kts | 103° |
| 2026-04-26 19:43 | 43.10814 | -76.12844 | 540 ft | 89 kts | 86° |
| 2026-04-26 19:43 | 43.10841 | -76.12066 | 420 ft | 68 kts | 87° |
| 2026-04-26 19:43 | 43.10855 | -76.11572 | 420 ft | 40 kts | 87° |
| 2026-04-26 19:43 | 43.10866 | -76.11372 | 424 ft | 28 kts | 76° |
| 2026-04-26 19:44 | 43.10957 | -76.11187 | 424 ft | 11 kts | 39° |
| 2026-04-26 19:44 | 43.10988 | -76.11303 | 423 ft | 26 kts | 267° |
| 2026-04-26 19:44 | 43.10983 | -76.11468 | 422 ft | 21 kts | 268° |
| 2026-04-26 19:44 | 43.10974 | -76.11736 | 419 ft | 29 kts | 267° |
| 2026-04-26 19:45 | 43.10966 | -76.11966 | 420 ft | 19 kts | 268° |
| 2026-04-26 19:45 | 43.10961 | -76.12120 | 423 ft | 18 kts | 274° |
| 2026-04-26 19:45 | 43.11026 | -76.12178 | 421 ft | 15 kts | 341° |
| 2026-04-26 19:45 | 43.11076 | -76.12212 | 417 ft | 0 kts | 333° |